Meteo Giornale » Osservazioni meteo Stati Uniti (USA) » Quincy Reg-Baldwin Fld
ore: 07:54 - Osservazioni Meteo Quincy Reg-Baldwin Fld
Lat. 39° 56' N Lon. 91° 11' W Alt. 234 metri s.l.m.
24 °C
Sereno
Temp. 24 Ore
22 °C
36 °C
Sud/Sud-Ovest
13 Km/h
Dew point 19 °C
Umidità 73 %
Visibilità 10 Km
Il sole sorge alle ore 06:32
Il sole tramonta alle ore 19:36
| Data e Ora | Cielo e Fenomeni | T °C | DP °C | Um. % | Pres. hPa | Vis. km | Vento km/h | |
|---|---|---|---|---|---|---|---|---|
| Oggi h: 07:54 | Sereno | 24 | 19 | 73 | 1017 | 10 | S/SO 13 | |
| Oggi h: 06:54 | Sereno | 22 | 19 | 83 | 1016 | 10 | S/SO 14.8 | |
| Oggi h: 05:54 | Sereno | 22 | 19 | 83 | 1015 | 10 | S 13 | |
| Oggi h: 04:54 | Sereno | 23 | 19 | 78 | 1015 | 10 | S 13 | |
| Oggi h: 03:54 | Sereno | 23 | 20 | 83 | 1015 | 10 | SO 7.4 | |
| Oggi h: 02:54 | Sereno | 24 | 20 | 78 | 1015 | 10 | S 13 | |
| Oggi h: 01:54 | Sereno | 24 | 21 | 83 | 1015 | 10 | S/SO 11.1 | |
| Oggi h: 00:54 | Sereno | 26 | 21 | 73 | 1015 | 10 | S/SO 14.8 | |
| Ieri h: 23:54 | Sereno | 27 | 21 | 69 | 1015 | 10 | S 11.1 | |
| Ieri h: 22:54 | Sereno | 26 | 21 | 73 | 1015 | 10 | S 11.1 | |
| Ieri h: 21:54 | Sereno | 27 | 21 | 69 | 1015 | 10 | S 9.3 | |
| Ieri h: 20:54 | Sereno | 29 | 20 | 58 | 1014 | 10 | S 9.3 | |
| Ieri h: 19:54 | Sereno | 29 | 21 | 62 | 1014 | 10 | N 5.5 | |
| Ieri h: 18:54 | Sereno | 31 | 21 | 55 | 1013 | 10 | S/SO 11.1 | |
| Ieri h: 17:54 | Sereno | 34 | 21 | 46 | 1013 | 10 | SO 11.1 | |
| Ieri h: 16:54 | Sereno | 36 | 21 | 41 | 1013 | 10 | S/SO 11.1 | |
| Ieri h: 15:54 | Sereno | 36 | 19 | 36 | 1013 | 10 | S/SO 24 | |
| Ieri h: 14:54 | Sereno | 36 | 19 | 36 | 1014 | 10 | S/SO 16.7 | |
| Ieri h: 13:54 | Sereno | 35 | 18 | 36 | 1014 | 10 | S/SO 27.8 | |
| Ieri h: 12:54 | Sereno | 34 | 19 | 41 | 1015 | 10 | SO 22.2 | |
| Ieri h: 11:54 | Sereno | 33 | 19 | 43 | 1015 | 10 | SO 18.5 | |
| Ieri h: 10:54 | Sereno | 31 | 19 | 48 | 1015 | 10 | SO 18.5 | |
| Ieri h: 09:54 | Nuvoloso | 27 | 18 | 57 | 1015 | 10 | S/SO 18.5 | |
| Ieri h: 08:54 | Coperto | 27 | 17 | 54 | 1015 | 10 | S/SO 22.2 | |



